Time;durP1;ratioP1;P1;durP2;ratioP2;P2;SDS_P1;SDS_P2;PMS_P1;PMS_P2;Temp;Humidity;BMP_temperature;BMP_pressure;BME280_temperature;BME280_humidity;BME280_pressure;Samples;Min_cycle;Max_cycle;Signal;HPM_P1;HPM_P2
2023/04/12 00:01:05;;;;;;;0.10;0.10;;;8.70;99.90;;;8.87;100.00;99287.03;4929261;29;20234;-72
2023/04/12 00:03:33;;;;;;;0.10;0.10;;;;;;;8.83;100.00;99294.06;4932966;29;20281;-72
2023/04/12 00:06:02;;;;;;;0.10;0.10;;;8.80;99.90;;;8.77;100.00;99304.63;4939960;29;20230;-72
2023/04/12 00:08:33;;;;;;;0.10;0.10;;;;;;;8.74;100.00;99315.19;4937238;29;20329;-72
2023/04/12 00:11:02;;;;;;;0.10;0.10;;;8.60;99.90;;;8.80;100.00;99338.03;4938859;29;20234;-72
2023/04/12 00:13:30;;;;;;;0.10;0.10;;;;;;;8.74;100.00;99341.53;4939282;29;20246;-72
2023/04/12 00:15:58;;;;;;;0.10;0.10;;;;;;;8.68;100.00;99356.47;4936443;29;20309;-71
2023/04/12 00:18:26;;;;;;;0.10;0.10;;;;;;;8.63;100.00;99372.28;4944410;29;20244;-72
2023/04/12 00:20:54;;;;;;;0.20;0.20;;;8.50;99.90;;;8.63;100.00;99383.72;4938574;29;20234;-72
2023/04/12 00:23:22;;;;;;;0.10;0.10;;;;;;;8.58;100.00;99395.13;4926461;29;20262;-72
2023/04/12 00:25:50;;;;;;;0.10;0.10;;;;;;;8.55;100.00;99408.31;4930980;29;20377;-72
2023/04/12 00:28:17;;;;;;;0.10;0.10;;;;;;;8.53;100.00;99418.84;4915458;29;20270;-72
2023/04/12 00:30:45;;;;;;;0.10;0.10;;;;;;;8.45;100.00;99435.53;4931674;29;20230;-70
2023/04/12 00:33:12;;;;;;;0.10;0.10;;;;;;;8.43;100.00;99455.72;4927836;29;20242;-71
2023/04/12 00:35:39;;;;;;;0.10;0.10;;;;;;;8.42;100.00;99473.28;4925650;29;20266;-71
2023/04/12 00:38:09;;;;;;;0.10;0.10;;;;;;;8.39;100.00;99493.47;4926207;29;20234;-71
2023/04/12 00:40:41;;;;;;;0.10;0.10;;;8.30;99.90;;;8.38;100.00;99516.31;4931669;29;20245;-73
2023/04/12 00:43:14;;;;;;;0.10;0.10;;;8.30;99.90;;;8.40;100.00;99543.53;4925756;29;20761;-71
2023/04/12 00:45:43;;;;;;;0.10;0.10;;;;;;;8.37;100.00;99561.97;4930747;29;20321;-71
2023/04/12 00:48:10;;;;;;;0.10;0.10;;;;;;;8.36;100.00;99583.91;4932536;29;20586;-71
2023/04/12 00:50:40;;;;;;;0.10;0.10;;;8.20;99.90;;;8.33;100.00;99600.59;4918724;29;20325;-71
2023/04/12 00:53:10;;;;;;;0.10;0.10;;;;;;;8.31;100.00;99628.63;4913340;29;20770;-71
2023/04/12 00:55:41;;;;;;;0.32;0.32;;;;;;;8.29;100.00;99651.44;4931586;29;20306;-71
2023/04/12 00:58:09;;;;;;;0.10;0.10;;;;;;;8.20;100.00;99664.56;4923763;29;20266;-71
2023/04/12 01:00:36;;;;;;;0.10;0.10;;;;;;;8.25;100.00;99690.94;4928530;29;20234;-71
2023/04/12 01:03:04;;;;;;;0.20;0.20;;;;;;;8.18;100.00;99704.94;4932257;29;20250;-71
2023/04/12 01:05:40;;;;;;;0.10;0.10;;;8.10;99.90;;;8.30;100.00;99726.97;4913757;29;20237;-72
2023/04/12 01:08:09;;;;;;;0.10;0.10;;;8.20;99.90;;;8.23;100.00;99738.34;4918805;29;20268;-72
2023/04/12 01:11:16;;;;;;;0.10;0.10;;;7.90;99.90;;;8.23;100.00;99761.16;4927014;29;20691;-71
2023/04/12 01:13:45;;;;;;;0.10;0.10;;;;;;;8.15;100.00;99769.00;4916023;29;20238;-71
2023/04/12 01:16:44;;;;;;;0.10;0.10;;;8.10;99.90;;;8.13;100.00;99778.63;4932151;29;20239;-72
2023/04/12 01:19:34;;;;;;;0.10;0.10;;;8.10;99.90;;;8.16;100.00;99801.50;4934216;29;20238;-74
2023/04/12 01:22:25;;;;;;;0.10;0.10;;;8.70;99.90;;;8.16;100.00;99830.47;4933671;29;20282;-74
2023/04/12 01:25:22;;;;;;;0.10;0.10;;;8.10;99.90;;;8.09;100.00;99834.78;4916957;29;20286;-73
2023/04/12 01:27:54;;;;;;;0.10;0.10;;;8.00;99.90;;;8.11;100.00;99847.97;4933248;29;20234;-72
2023/04/12 01:30:22;;;;;;;0.10;0.10;;;8.00;99.90;;;8.13;100.00;99860.28;4924175;29;20333;-72
2023/04/12 01:32:50;;;;;;;0.10;0.10;;;8.00;99.90;;;8.08;100.00;99869.88;4925989;29;20246;-72
2023/04/12 01:35:20;;;;;;;0.10;0.10;;;8.00;99.90;;;8.06;100.00;99891.81;4926420;29;20719;-71
2023/04/12 01:37:48;;;;;;;0.10;0.10;;;;;;;8.06;100.00;99891.81;4930578;29;20230;-72
2023/04/12 01:40:15;;;;;;;0.20;0.20;;;;;;;8.01;100.00;99910.19;4921329;29;20314;-71
2023/04/12 01:42:42;;;;;;;0.10;0.10;;;;;;;7.98;100.00;99918.94;4899667;29;20242;-72
2023/04/12 01:45:10;;;;;;;0.10;0.10;;;7.60;99.90;;;7.96;100.00;99927.69;4930825;29;20262;-71
2023/04/12 01:47:38;;;;;;;0.10;0.10;;;;;;;7.99;100.00;99940.88;4929300;29;20286;-72
2023/04/12 01:50:21;;;;;;;0.25;0.25;;;7.80;99.90;;;8.03;100.00;99950.59;4920986;29;20269;-72
2023/04/12 01:53:11;;;;;;;0.10;0.10;;;7.70;99.90;;;8.01;100.00;99961.09;4921428;29;20249;-73
2023/04/12 01:55:44;;;;;;;0.10;0.10;;;7.90;99.90;;;7.99;100.00;99969.84;4912196;29;20235;-72
2023/04/12 01:58:12;;;;;;;0.10;0.10;;;;;;;7.98;100.00;99986.50;4908568;29;20227;-72
2023/04/12 02:00:41;;;;;;;0.10;0.10;;;7.90;99.90;;;7.97;100.00;99995.28;4914253;29;20294;-73
2023/04/12 02:03:09;;;;;;;0.10;0.10;;;;;;;7.98;100.00;100012.84;4921940;29;20238;-73
2023/04/12 02:05:37;;;;;;;0.10;0.10;;;;;;;7.95;100.00;100021.59;4934386;29;20246;-72
2023/04/12 02:08:04;;;;;;;0.20;0.20;;;;;;;7.92;100.00;100028.56;4917182;29;20266;-71
2023/04/12 02:10:32;;;;;;;0.10;0.10;;;;;;;7.90;100.00;100036.44;4934835;29;20302;-72
2023/04/12 02:13:00;;;;;;;0.10;0.10;;;;;;;7.91;100.00;100053.13;4934391;29;20270;-72
2023/04/12 02:15:28;;;;;;;0.10;0.10;;;7.80;99.90;;;7.88;100.00;100060.97;4933568;29;20293;-72
2023/04/12 02:17:58;;;;;;;0.10;0.10;;;;;;;7.89;100.00;100076.81;4930067;29;20246;-75
2023/04/12 02:20:26;;;;;;;0.82;0.82;;;;;;;7.84;100.00;100088.13;4932656;29;20266;-72
2023/04/12 02:22:53;;;;;;;0.55;0.55;;;;;;;7.90;100.00;100102.25;4933059;29;20243;-74
2023/04/12 02:25:21;;;;;;;0.10;0.10;;;;;;;7.82;100.00;100113.53;4932994;29;20246;-73
2023/04/12 02:27:48;;;;;;;0.20;0.20;;;;;;;7.81;100.00;100122.31;4928197;29;20247;-76
2023/04/12 02:30:16;;;;;;;0.10;0.10;;;;;;;7.81;100.00;100120.56;4928921;29;20755;-76
2023/04/12 02:32:44;;;;;;;0.10;0.10;;;;;;;7.85;100.00;100126.75;4930274;29;20234;-73
2023/04/12 02:35:17;;;;;;;0.20;0.20;;;7.70;99.90;;;7.74;100.00;100110.75;4931816;29;20242;-75
2023/04/12 02:37:47;;;;;;;0.20;0.20;;;7.70;99.90;;;7.79;100.00;100111.72;4931148;29;20246;-74
2023/04/12 02:40:15;;;;;;;0.10;0.10;;;7.70;99.90;;;7.79;100.00;100105.56;4932294;29;20234;-75
2023/04/12 02:42:43;;;;;;;0.10;0.10;;;7.70;99.90;;;7.74;100.00;100087.06;4934112;29;20258;-75
2023/04/12 02:45:11;;;;;;;0.25;0.25;;;7.60;99.90;;;7.73;100.00;100064.25;4918603;29;20243;-73
2023/04/12 02:47:39;;;;;;;0.10;0.10;;;;;;;7.76;100.00;100014.28;4932645;29;20238;-72
2023/04/12 02:50:07;;;;;;;0.30;0.30;;;7.20;99.90;;;7.74;100.00;99955.47;4933302;29;20302;-72
2023/04/12 02:52:34;;;;;;;0.20;0.20;;;;;;;7.70;100.00;99917.69;4924852;29;20235;-72
2023/04/12 02:55:02;;;;;;;0.10;0.10;;;;;;;7.73;100.00;99898.44;4934309;28;20298;-72
2023/04/12 02:57:30;;;;;;;0.17;0.17;;;;;;;7.73;100.00;99880.00;4929360;29;20242;-72
2023/04/12 02:59:57;;;;;;;0.10;0.10;;;;;;;7.70;100.00;99857.16;4929078;29;20310;-73
2023/04/12 03:02:25;;;;;;;0.10;0.10;;;;;;;7.73;100.00;99848.44;4929724;29;20305;-73
2023/04/12 03:04:53;;;;;;;0.20;0.20;;;7.70;99.90;;;7.70;100.00;99830.84;4899855;29;20346;-76
2023/04/12 03:07:21;;;;;;;0.10;0.10;;;7.60;99.90;;;7.68;100.00;99827.31;4915054;29;20238;-75
2023/04/12 03:09:50;;;;;;;0.10;0.10;;;7.60;99.90;;;7.68;100.00;99814.16;4922100;29;20234;-75
2023/04/12 03:12:18;;;;;;;0.17;0.17;;;;;;;7.68;100.00;99811.53;4931090;29;20239;-76
2023/04/12 03:14:46;;;;;;;0.10;0.10;;;;;;;7.70;100.00;99798.41;4907135;29;20241;-73
2023/04/12 03:17:14;;;;;;;0.10;0.10;;;;;;;7.71;100.00;99794.91;4923526;29;20249;-73
2023/04/12 03:19:42;;;;;;;0.20;0.20;;;7.40;99.90;;;7.69;100.00;99791.38;4925476;29;20227;-73
2023/04/12 03:22:10;;;;;;;0.10;0.10;;;7.80;99.90;;;7.67;100.00;99793.97;4921097;29;20234;-74
2023/04/12 03:24:38;;;;;;;0.10;0.10;;;;;;;7.67;100.00;99785.19;4908663;29;20726;-75
2023/04/12 03:27:07;;;;;;;0.10;0.10;;;;;;;7.64;100.00;99783.41;4933773;29;20669;-75
2023/04/12 03:29:34;;;;;;;0.10;0.10;;;;;;;7.65;100.00;99774.66;4931551;29;20242;-75
2023/04/12 03:32:04;;;;;;;0.20;0.20;;;;;;;7.69;100.00;99771.19;4919372;29;20250;-75
2023/04/12 03:34:32;;;;;;;0.10;0.10;;;;;;;7.67;100.00;99748.34;4928734;29;20727;-75
2023/04/12 03:37:01;;;;;;;0.10;0.10;;;7.60;99.90;;;7.67;100.00;99757.13;4933399;29;20280;-75
2023/04/12 03:39:28;;;;;;;0.20;0.20;;;7.60;99.90;;;7.67;100.00;99748.34;4930042;29;20269;-75
2023/04/12 03:41:55;;;;;;;0.10;0.10;;;;;;;7.67;100.00;99746.63;4914002;29;20345;-75
2023/04/12 03:44:25;;;;;;;0.10;0.10;;;;;;;7.68;100.00;99742.22;4913797;29;20687;-75
2023/04/12 03:46:52;;;;;;;0.10;0.10;;;7.50;99.90;;;7.70;100.00;99745.75;4926014;29;20241;-75
2023/04/12 03:49:20;;;;;;;0.10;0.10;;;;;;;7.70;100.00;99735.22;4918545;29;20246;-76
2023/04/12 03:51:49;;;;;;;0.10;0.10;;;;;;;7.70;100.00;99746.63;4929777;29;20249;-75
2023/04/12 03:54:17;;;;;;;0.10;0.10;;;;;;;7.72;100.00;99730.88;4921618;29;20242;-75
2023/04/12 03:56:44;;;;;;;0.20;0.20;;;;;;;7.76;100.00;99729.13;4927676;29;20231;-75
2023/04/12 03:59:13;;;;;;;0.20;0.20;;;;;;;7.77;100.00;99729.16;4908982;29;20240;-76
2023/04/12 04:01:40;;;;;;;0.10;0.10;;;7.70;99.90;;;7.78;100.00;99730.91;4926018;29;20234;-75
2023/04/12 04:04:08;;;;;;;0.20;0.20;;;;;;;7.76;100.00;99734.41;4928161;29;20238;-75
2023/04/12 04:06:36;;;;;;;0.10;0.10;;;;;;;7.74;100.00;99729.13;4915941;29;20244;-75
2023/04/12 04:09:03;;;;;;;0.10;0.10;;;;;;;7.78;100.00;99732.66;4924719;29;20238;-76
2023/04/12 04:11:31;;;;;;;0.10;0.10;;;;;;;7.77;100.00;99736.16;4919868;29;20289;-75
2023/04/12 04:13:58;;;;;;;0.10;0.10;;;;;;;7.75;100.00;99732.63;4930348;29;20234;-75
2023/04/12 04:16:27;;;;;;;0.10;0.10;;;;;;;7.74;100.00;99737.03;4928346;29;20273;-75
2023/04/12 04:18:55;;;;;;;0.10;0.10;;;;;;;7.74;100.00;99736.16;4931639;29;20257;-76
2023/04/12 04:21:22;;;;;;;0.10;0.10;;;;;;;7.72;100.00;99731.75;4927985;29;20242;-75
2023/04/12 04:23:50;;;;;;;0.10;0.10;;;;;;;7.75;100.00;99740.53;4937151;29;20234;-75
2023/04/12 04:26:19;;;;;;;0.40;0.40;;;;;;;7.74;100.00;99744.91;4929649;29;20226;-75
2023/04/12 04:28:49;;;;;;;0.20;0.20;;;;;;;7.71;100.00;99747.53;4932847;29;20253;-75
2023/04/12 04:31:16;;;;;;;0.10;0.10;;;;;;;7.69;100.00;99744.88;4933348;29;20242;-76
2023/04/12 04:33:44;;;;;;;0.10;0.10;;;;;;;7.68;100.00;99743.13;4930574;29;20239;-75
2023/04/12 04:36:14;;;;;;;0.10;0.10;;;7.60;99.90;;;7.70;100.00;99751.03;4926164;29;20403;-75
2023/04/12 04:38:41;;;;;;;0.10;0.10;;;7.70;99.90;;;7.66;100.00;99754.50;4932509;29;20246;-75
2023/04/12 04:41:09;;;;;;;0.10;0.10;;;;;;;7.66;100.00;99767.66;4932577;29;20296;-76
2023/04/12 04:43:38;;;;;;;0.10;0.10;;;;;;;7.65;100.00;99773.78;4932479;29;20230;-75
2023/04/12 04:46:06;;;;;;;0.10;0.10;;;;;;;7.61;100.00;99777.25;4928769;29;20227;-75
2023/04/12 04:48:33;;;;;;;0.10;0.10;;;;;;;7.62;100.00;99779.88;4929415;29;20238;-76
2023/04/12 04:51:01;;;;;;;0.10;0.10;;;;;;;7.63;100.00;99779.03;4946212;29;20705;-75
2023/04/12 04:53:28;;;;;;;0.10;0.10;;;;;;;7.64;100.00;99788.69;4939915;29;20310;-80
2023/04/12 04:56:00;;;;;;;0.20;0.20;;;7.90;99.90;;;7.62;100.00;99793.06;4929536;29;20250;-78
2023/04/12 04:58:27;;;;;;;0.10;0.10;;;;;;;7.68;100.00;99797.50;4923264;29;20258;-78
2023/04/12 05:00:58;;;;;;;0.10;0.10;;;7.60;99.90;;;7.66;100.00;99799.22;4931979;29;20265;-79
2023/04/12 05:03:29;;;;;;;0.10;0.10;;;;;;;7.66;100.00;99804.50;4921207;29;20246;-78
2023/04/12 05:05:57;;;;;;;0.10;0.10;;;;;;;7.71;100.00;99819.47;4917426;29;20253;-78
2023/04/12 05:08:24;;;;;;;0.10;0.10;;;;;;;7.70;100.00;99811.56;4931937;29;20314;-78
2023/04/12 05:10:53;;;;;;;0.10;0.10;;;;;;;7.68;100.00;99808.03;4913091;29;20241;-78
2023/04/12 05:13:21;;;;;;;0.10;0.10;;;;;;;7.72;100.00;99815.06;4922104;29;20314;-78
2023/04/12 05:15:48;;;;;;;0.10;0.10;;;;;;;7.69;100.00;99813.31;4930883;29;20230;-78
2023/04/12 05:18:16;;;;;;;0.10;0.10;;;;;;;7.72;100.00;99810.69;4931532;29;20641;-78
2023/04/12 05:20:44;;;;;;;0.10;0.10;;;7.60;99.90;;;7.71;100.00;99810.69;4927111;29;20313;-78
2023/04/12 05:23:13;;;;;;;0.10;0.10;;;;;;;7.69;100.00;99808.03;4908954;29;20230;-78
2023/04/12 05:25:47;;;;;;;0.10;0.10;;;7.60;99.90;;;7.74;100.00;99808.09;4929337;29;20309;-78
2023/04/12 05:28:16;;;;;;;0.20;0.20;;;7.60;99.90;;;7.74;100.00;99810.72;4930102;29;20663;-78
2023/04/12 05:30:44;;;;;;;0.10;0.10;;;7.60;99.90;;;7.73;100.00;99803.69;4930863;29;20252;-78
2023/04/12 05:33:11;;;;;;;0.10;0.10;;;;;;;7.72;100.00;99805.44;4930701;29;20265;-78
2023/04/12 05:38:12;;;;;;;0.10;0.10;;;;;;;7.73;100.00;99803.69;4895830;29;20246;-81
2023/04/12 05:40:42;;;;;;;0.10;0.10;;;;;;;7.74;100.00;99807.19;4929514;29;20238;-79
2023/04/12 05:43:13;;;;;;;0.10;0.10;;;;;;;7.77;100.00;99807.22;4928973;29;20274;-80
2023/04/12 05:45:40;;;;;;;0.10;0.10;;;7.70;99.90;;;7.77;100.00;99815.13;4919751;29;20243;-77
2023/04/12 05:48:08;;;;;;;0.10;0.10;;;;;;;7.70;100.00;99815.06;4900764;29;20242;-84
2023/04/12 05:50:35;;;;;;;;;;;7.60;99.90;;;7.78;100.00;99817.78;4915936;29;20231;-76
2023/04/12 05:53:02;;;;;;;;;;;7.70;99.90;;;7.78;100.00;99812.50;4908969;29;19966;-74
2023/04/12 05:55:29;;;;;;;;;;;7.70;99.90;;;7.80;100.00;99799.38;4907640;29;20013;-73
2023/04/12 05:57:57;;;;;;;;;;;7.70;99.90;;;7.82;100.00;99805.56;4910000;29;19926;-73
2023/04/12 06:00:25;;;;;;;;;;;7.70;99.90;;;7.78;100.00;99801.97;4894771;29;19966;-73
2023/04/12 06:02:52;;;;;;;;;;;7.70;99.90;;;7.84;100.00;99803.81;4912417;29;20013;-73
2023/04/12 06:05:19;;;;;;;;;;;7.70;99.90;;;7.79;100.00;99802.88;4900547;29;19923;-73
2023/04/12 06:07:46;;;;;;;;;;;7.70;99.90;;;7.76;100.00;99808.09;4916340;29;19978;-74
2023/04/12 06:10:15;;;;;;;;;;;7.70;99.90;;;7.78;100.00;99804.63;4898102;29;19923;-73
2023/04/12 06:12:43;;;;;;;;;;;7.70;99.90;;;7.83;100.00;99807.31;4914340;29;20011;-73
2023/04/12 06:15:10;;;;;;;;;;;7.70;99.90;;;7.87;100.00;99809.13;4914018;29;19923;-73
2023/04/12 06:17:37;;;;;;;;;;;7.70;99.90;;;7.90;100.00;99820.56;4915396;29;19923;-73
2023/04/12 06:20:08;;;;;;;;;;;7.80;99.90;;;7.92;100.00;99817.94;4915366;29;20000;-74
2023/04/12 06:22:36;;;;;;;;;;;7.80;99.90;;;7.92;100.00;99825.84;4914962;29;19929;-74
2023/04/12 06:25:03;;;;;;;;;;;7.80;99.90;;;7.95;100.00;99828.50;4914350;29;20440;-73
2023/04/12 06:27:30;;;;;;;;;;;7.80;99.90;;;7.95;100.00;99834.66;4914418;29;19931;-73
2023/04/12 06:29:57;;;;;;;;;;;7.80;99.90;;;7.98;100.00;99832.06;4898465;29;19958;-73
2023/04/12 06:32:25;;;;;;;;;;;7.90;99.90;;;7.99;100.00;99832.94;4915983;29;19923;-73
2023/04/12 06:34:52;;;;;;;;;;;7.90;99.90;;;8.02;100.00;99832.97;4897953;29;19923;-73
2023/04/12 06:37:20;;;;;;;;;;;7.90;99.90;;;8.07;100.00;99839.16;4915303;29;19985;-73
2023/04/12 06:39:47;;;;;;;;;;;9.40;99.90;;;8.08;100.00;99843.56;4915409;29;19962;-73
2023/04/12 06:42:14;;;;;;;;;;;8.00;99.90;;;8.12;100.00;99849.72;4915793;29;19923;-73
2023/04/12 06:44:41;;;;;;;;;;;8.00;99.90;;;8.12;100.00;99857.63;4913252;29;19971;-73
2023/04/12 06:47:08;;;;;;;;;;;8.00;99.90;;;8.13;100.00;99867.31;4913372;29;19998;-73
2023/04/12 06:49:35;;;;;;;;;;;8.00;99.90;;;8.10;100.00;99849.72;4914201;29;19927;-73
2023/04/12 06:52:02;;;;;;;;;;;8.00;99.90;;;8.23;100.00;99862.13;4907813;29;20010;-74
2023/04/12 06:54:29;;;;;;;;;;;8.10;99.90;;;8.24;100.00;99868.28;4899169;29;20381;-73
2023/04/12 06:56:56;;;;;;;;;;;8.10;99.90;;;8.33;100.00;99861.38;4915838;29;20022;-73
2023/04/12 06:59:23;;;;;;;;;;;8.20;99.90;;;8.36;100.00;99862.28;4916462;29;19922;-73
2023/04/12 07:01:50;;;;;;;;;;;8.20;99.90;;;8.37;100.00;99858.78;4917238;29;20030;-76
2023/04/12 07:04:17;;;;;;;;;;;8.20;99.90;;;8.38;100.00;99858.78;4913148;29;19923;-73
2023/04/12 07:06:45;;;;;;;;;;;8.30;99.90;;;8.40;100.00;99840.34;4915686;29;19974;-75
2023/04/12 07:09:11;;;;;;;;;;;8.30;99.90;;;8.42;100.00;99841.25;4915353;29;19970;-73
2023/04/12 07:11:38;;;;;;;;;;;8.30;99.90;;;8.49;100.00;99837.78;4915753;29;19970;-75
2023/04/12 07:14:05;;;;;;;;;;;8.30;99.90;;;8.62;100.00;99851.06;4911182;29;19927;-77
2023/04/12 07:16:32;;;;;;;;;;;8.40;99.90;;;8.71;100.00;99852.00;4914800;29;19934;-77
2023/04/12 07:18:59;;;;;;;;;;;8.50;99.90;;;8.67;100.00;99853.75;4910917;29;19938;-76
2023/04/12 07:21:27;;;;;;;;;;;8.50;99.90;;;8.75;100.00;99846.78;4914585;29;19955;-77
2023/04/12 07:23:54;;;;;;;;;;;8.60;99.90;;;8.75;100.00;99852.03;4911401;29;19931;-75
2023/04/12 07:26:22;;;;;;;;;;;8.60;99.90;;;8.72;100.00;99851.16;4911645;29;19929;-76
2023/04/12 07:28:49;;;;;;;;;;;8.60;99.90;;;8.74;100.00;99844.13;4905400;29;19927;-76
2023/04/12 07:31:16;;;;;;;;;;;8.60;99.90;;;8.72;100.00;99830.94;4908660;29;20380;-75
2023/04/12 07:33:43;;;;;;;;;;;8.60;99.90;;;8.77;100.00;99837.13;4908101;29;19923;-76
2023/04/12 07:36:11;;;;;;;;;;;8.70;99.90;;;8.76;100.00;99831.84;4891103;29;19923;-76
2023/04/12 07:38:38;;;;;;;;;;;8.60;99.90;;;8.77;100.00;99829.22;4911647;29;19923;-76
2023/04/12 07:41:05;;;;;;;;;;;8.60;99.90;;;8.88;99.99;99842.47;4892518;29;20148;-76
2023/04/12 07:43:32;;;;;;;;;;;8.70;99.90;;;8.84;100.00;99833.66;4907185;29;19935;-77
2023/04/12 07:46:03;;;;;;;;;;;8.70;99.90;;;8.86;99.83;99833.66;4906033;29;20459;-76
2023/04/12 07:48:30;;;;;;;;;;;8.70;99.90;;;8.77;99.91;99823.06;4896450;29;19923;-76
2023/04/12 07:50:57;;;;;;;;;;;8.70;99.90;;;8.85;99.03;99830.16;4912460;29;19931;-76
2023/04/12 07:53:26;;;;;;;;;;;8.70;99.90;;;9.03;97.28;99842.56;4912020;29;19941;-76
2023/04/12 07:55:54;;;;;;;;;;;8.80;99.90;;;9.02;97.01;99839.91;4910025;29;19923;-76
2023/04/12 07:58:23;;;;;;;;;;;8.90;99.90;;;8.99;95.78;99830.22;4911179;29;19923;-76
2023/04/12 08:00:50;;;;;;;;;;;8.80;99.90;;;9.12;94.54;99845.28;4911281;29;20370;-76
2023/04/12 08:03:17;;;;;;;;;;;8.90;99.90;;;9.07;95.78;99833.78;4911457;29;20046;-76
2023/04/12 08:05:45;;;;;;;;;;;8.90;99.90;;;9.24;95.48;99840.06;4910962;29;19955;-76
2023/04/12 08:08:13;;;;;;;;;;;9.10;99.90;;;9.23;95.13;99847.97;4913253;29;19930;-76
2023/04/12 08:10:40;;;;;;;;;;;9.10;99.90;;;9.33;93.29;99854.19;4912769;29;19922;-76
2023/04/12 08:13:07;;;;;;;;;;;9.20;99.90;;;9.32;93.20;99869.13;4880963;29;19933;-76
2023/04/12 08:15:34;;;;;;;;;;;9.20;99.90;;;9.29;93.63;99869.09;4909223;29;19923;-76
2023/04/12 08:18:01;;;;;;;;;;;9.10;99.90;;;9.33;93.45;99865.59;4911433;29;19987;-76
2023/04/12 08:20:28;;;;;;;;;;;9.20;99.90;;;9.46;92.64;99866.53;4913064;29;19930;-76
2023/04/12 08:22:55;;;;;;;;;;;9.30;99.90;;;9.41;93.39;99868.28;4909357;29;20014;-76
2023/04/12 08:25:23;;;;;;;;;;;9.30;99.90;;;9.57;92.65;99870.13;4899829;29;19954;-76
2023/04/12 08:27:50;;;;;;;;;;;9.40;99.90;;;9.65;92.45;99873.66;4911618;29;20167;-76
2023/04/12 08:30:17;;;;;;;;;;;9.40;99.90;;;9.78;92.17;99896.59;4912330;29;19992;-76
2023/04/12 08:32:44;;;;;;;;;;;9.60;99.90;;;9.82;92.88;99895.72;4896837;29;20483;-76
2023/04/12 08:35:13;;;;;;;;;;;9.60;99.90;;;9.89;93.74;99904.56;4903403;29;19957;-77
2023/04/12 08:37:40;;;;;;;;;;;9.60;99.90;;;9.79;95.95;99897.47;4910577;29;20011;-78
2023/04/12 08:40:08;;;;;;;;;;;9.60;99.90;;;9.90;96.47;99907.19;4911659;29;19981;-76
2023/04/12 08:42:36;;;;;;;;;;;9.70;99.90;;;9.91;98.82;99910.72;4904260;29;19997;-76
2023/04/12 08:45:05;;;;;;;;;;;9.70;99.90;;;10.03;100.00;99915.16;4911537;29;20008;-77
2023/04/12 08:47:33;;;;;;;;;;;9.80;99.90;;;10.13;100.00;99911.66;4912258;29;20366;-76
2023/04/12 08:50:01;;;;;;;;;;;9.90;99.90;;;10.07;100.00;99915.19;4878846;29;19970;-76
2023/04/12 08:52:29;;;;;;;;;;;9.90;99.90;;;10.11;100.00;99918.72;4909436;29;19961;-77
2023/04/12 08:54:56;;;;;;;;;;;9.90;99.90;;;10.06;100.00;99909.88;4892560;29;20476;-76
2023/04/12 08:57:23;;;;;;;;;;;9.90;99.90;;;9.95;100.00;99910.75;4911420;29;19963;-76
2023/04/12 08:59:51;;;;;;;;;;;9.90;99.90;;;10.09;100.00;99916.06;4896215;29;19970;-76
2023/04/12 09:02:18;;;;;;;;;;;9.90;99.90;;;10.13;100.00;99914.31;4896707;29;19961;-76
2023/04/12 09:04:48;;;;;;;;;;;9.90;99.90;;;10.14;100.00;99913.44;4907445;29;19961;-75
2023/04/12 09:07:16;;;;;;;;;;;9.90;99.90;;;10.24;100.00;99907.31;4893898;29;19970;-76
2023/04/12 09:09:44;;;;;;;;;;;10.00;99.90;;;10.20;100.00;99897.63;4908018;29;19960;-75
2023/04/12 09:12:12;;;;;;;;;;;10.00;99.90;;;10.35;100.00;99902.06;4910901;29;19959;-76
2023/04/12 09:14:39;;;;;;;;;;;10.10;99.90;;;10.33;100.00;99890.59;4907562;29;20004;-76
2023/04/12 09:17:23;;;;;;;;;;;10.10;99.90;;;10.42;100.00;99895.94;4892290;29;19961;-76
2023/04/12 09:19:51;;;;;;;;;;;10.20;99.90;;;10.51;100.00;99885.34;4908715;29;20334;-76
2023/04/12 09:22:18;;;;;;;;;;;10.30;99.90;;;10.63;100.00;99888.00;4910306;29;19985;-76
2023/04/12 09:24:46;;;;;;;;;;;10.30;99.90;;;10.44;100.00;99888.88;4894405;29;19961;-76
2023/04/12 09:27:13;;;;;;;;;;;10.30;99.90;;;10.47;100.00;99873.03;4905428;29;19962;-76
2023/04/12 09:29:40;;;;;;;;;;;10.30;99.90;;;10.43;100.00;99880.06;4908210;29;20477;-76
2023/04/12 09:32:08;;;;;;;;;;;10.30;99.90;;;10.38;100.00;99863.28;4912699;29;20043;-76
2023/04/12 09:34:35;;;;;;;;;;;10.30;99.90;;;10.42;100.00;99858.91;4912981;29;19923;-76
2023/04/12 09:37:15;;;;;;;;;;;10.20;99.90;;;10.47;100.00;99859.81;4898330;29;19961;-76
2023/04/12 09:39:42;;;;;;;;;;;10.30;99.90;;;10.51;100.00;99857.16;4909157;29;19960;-76
2023/04/12 09:42:11;;;;;;;;;;;10.30;99.90;;;10.41;100.00;99849.22;4912282;29;19953;-77
2023/04/12 09:44:57;;;;;;;;;;;10.30;99.90;;;10.54;100.00;99851.88;4911345;29;20349;-76
2023/04/12 09:47:37;;;;;;;;;;;10.30;99.90;;;10.59;100.00;99846.59;4907593;29;19992;-76
2023/04/12 09:50:06;;;;;;;;;;;10.40;99.90;;;10.52;100.00;99832.47;4920613;29;20334;-78
2023/04/12 09:52:37;;;;;;;;;;;10.30;99.90;;;10.59;100.00;99833.38;4915678;29;19971;-77
2023/04/12 09:55:09;;;;;;;;;;;10.40;99.90;;;10.60;100.00;99829.84;4909208;29;19930;-77
2023/04/12 09:57:38;;;;;;;;;;;10.30;99.90;;;10.68;100.00;99829.81;4916208;29;20352;-77
2023/04/12 10:00:17;;;;;;;;;;;10.40;99.90;;;10.77;100.00;99837.75;4901314;29;19965;-77
2023/04/12 10:02:46;;;;;;;;;;;10.60;99.90;;;10.76;100.00;99825.41;4915890;29;20005;-79
2023/04/12 10:05:17;;;;;;;;;;;10.60;99.90;;;10.68;100.00;99816.59;4914456;29;20360;-76
2023/04/12 10:07:45;;;;;;;;;;;10.50;99.90;;;10.62;100.00;99817.50;4915557;29;19926;-77
2023/04/12 10:10:14;;;;;;;;;;;10.40;99.90;;;10.70;100.00;99814.84;4916225;29;19930;-75
2023/04/12 10:12:44;;;;;;;;;;;10.50;99.90;;;10.68;100.00;99800.75;4919583;29;20022;-76
2023/04/12 10:15:12;;;;;;;;;;;10.50;99.90;;;10.82;100.00;99807.75;4915159;29;19923;-76
2023/04/12 10:17:45;;;;;;;;;;;10.60;99.90;;;10.96;100.00;99801.56;4915738;29;19923;-76
2023/04/12 10:20:13;;;;;;;;;;;10.70;99.90;;;10.89;100.00;99798.94;4915379;29;19923;-76
2023/04/12 10:22:48;;;;;;;;;;;10.70;99.90;;;10.87;100.00;99789.25;4915753;29;19961;-76
2023/04/12 10:25:20;;;;;;;;;;;10.70;99.90;;;10.84;100.00;99784.84;4914992;29;19923;-76
2023/04/12 10:27:48;;;;;;;;;;;10.60;99.90;;;11.02;100.00;99797.13;4914671;29;19990;-75
2023/04/12 10:30:28;;;;;;;;;;;10.80;99.90;;;11.12;100.00;99798.88;4915671;29;19930;-77
2023/04/12 10:33:01;;;;;;;;;;;10.80;99.90;;;11.11;100.00;99788.28;4915347;29;19923;-75
2023/04/12 10:35:29;;;;;;;;;;;10.80;99.90;;;11.18;100.00;99788.25;4914155;29;19922;-76
2023/04/12 10:38:00;;;;;;;;;;;10.90;99.90;;;10.92;100.00;99771.59;4899864;29;19923;-75
2023/04/12 10:40:28;;;;;;;;;;;10.70;99.90;;;10.87;100.00;99768.97;4898703;29;19970;-75
2023/04/12 10:43:23;;;;;;;;;;;10.70;99.90;;;10.84;100.00;99768.97;4913164;29;19923;-75
2023/04/12 10:45:50;;;;;;;;;;;10.60;99.90;;;10.79;100.00;99752.22;4901911;29;19982;-75
2023/04/12 10:48:50;;;;;;;;;;;10.60;99.90;;;11.02;100.00;99760.09;4896104;29;19923;-75
2023/04/12 10:51:27;;;;;;;;;;;10.70;99.90;;;11.00;100.00;99753.94;4909596;29;19970;-75
2023/04/12 10:54:15;;;;;;;;;;;10.80;99.90;;;10.95;100.00;99754.81;4912077;29;19923;-76
2023/04/12 10:56:43;;;;;;;;;;;10.70;99.90;;;10.98;100.00;99752.16;4911312;29;19974;-75
2023/04/12 10:59:11;;;;;;;;;;;10.80;99.90;;;11.12;100.00;99756.53;4910764;29;19986;-75
2023/04/12 11:01:38;;;;;;;;;;;10.90;99.90;;;11.19;100.00;99758.25;4918517;29;19954;-76
2023/04/12 11:04:12;;;;;;;;;;;11.00;99.90;;;11.02;100.00;99746.88;4912341;29;19923;-75
2023/04/12 11:06:51;;;;;;;;;;;10.80;99.90;;;10.98;100.00;99739.81;4914332;29;19938;-76
2023/04/12 11:09:24;;;;;;;;;;;10.80;99.90;;;10.98;100.00;99745.13;4913552;29;19927;-75
2023/04/12 11:12:12;;;;;;;;;;;10.80;99.90;;;10.92;100.00;99731.91;4911935;29;19992;-75
2023/04/12 11:14:50;;;;;;;;;;;10.70;99.90;;;10.90;100.00;99731.03;4912101;29;19923;-75
2023/04/12 11:17:17;;;;;;;;;;;10.70;99.90;;;10.89;100.00;99721.34;4898988;29;19927;-75
2023/04/12 11:19:45;;;;;;;;;;;10.70;99.90;;;10.94;100.00;99730.13;4914026;29;19959;-74
2023/04/12 11:22:14;;;;;;;;;;;10.70;99.90;;;11.11;100.00;99730.94;4912819;29;19979;-74
2023/04/12 11:24:47;;;;;;;;;;;10.80;99.90;;;11.14;100.00;99727.41;4912597;29;19974;-75
2023/04/12 11:27:17;;;;;;;;;;;10.90;99.90;;;11.20;100.00;99732.66;4901093;29;19927;-76